Trenton, NE (69044)

1:52 AM CDT on September 02, 2015 (GMT -0500)
5 North, 1.5 West | | Change Station
CLOSE
Current Station
Personal Weather Station
Location: Trenton, NE
Elevation: 2969 ft
Nearby Weather Stations

Elev 2969 ft 40.24 °N, 101.04 °W | Updated 1 hour ago

Clear
Clear
73.0 °F
Feels Like 75 °F
N
4.0
Wind Variable Wind from WSW
Gusts 6.0 mph

Today
High -- | Low -- °F
--% Chance of Precip.
Yesterday
High -- | Low -- °F
Precip. -- in
7:12 AM 8:14 PM
Waning Gibbous, 83% visible
Pressure 29.83 in
Visibility 10.0 miles
Clouds Clear
Heat Index 75 °F
Dew Point 63 °F
Humidity 68%
Rainfall Not available.
Snow Depth Not available.
UV 0 out of 12
Pollen 10.20 out of 12
Air Quality Not available.
Flu Activity Not available.
METAR KMCK 020553Z AUTO 24003KT 10SM CLR 22/14 A2991 RMK AO2 SLP100 T02220139 10339 20222 403500183 58002
Pressure 29.83 in
Visibility 10.0 miles
Clouds Clear
Heat Index 75 °F
Dew Point 63 °F
Humidity 68%
Rainfall Not available.
Snow Depth Not available.
UV 0 out of 12
Pollen 10.20 out of 12
Air Quality Not available.
Flu Activity Not available.
METAR KMCK 020553Z AUTO 24003KT 10SM CLR 22/14 A2991 RMK AO2 SLP100 T02220139 10339 20222 403500183 58002

10-Day Weather Forecast

×

Almanac

Astronomy

Sep. 02, 2015 Rise Set
Actual Time
Civil Twilight
Nautical Twilight
Astronomical Twilight
Moon
Length of Visible Light
Length of Day
Tomorrow will be .
, % of the Moon is Illuminated

Today's Extremes

State Highs State Lows

Community

WunderPhotos

Upload Photos

1,851,709 photos uploaded!

WunderBlogs® & News

Nearby

Air Quality

  Air Quality AQ Index Pollutant
Not available.

Snow Depth

Station Depth Elevation

Earthquake Activity

City Distance Mag. Time & Date
Minimum magnitude displayed is 2.5.

Coastal Water Temperatures

Place Temperature

Stations

Nearby Weather Stations

Station Location Temp. Windchill Dew Point Humidity Wind Precip. Elev Updated Type